Terminal Aerodrome Forecast
Issued by NWS Grand Forks, ND

Home | Current Version | Previous Version | Text Only | Print | Product List | Glossary Off
Versions: 1 2 3 4 5 6 7 8 9 10 11 12 13 14 15 16 17 18 19

170
FTUS43 KFGF 212320
TAFFAR
TAF
KFAR 212320Z 2200/2224 VRB06KT P6SM SKC
     FM221800 28010KT P6SM FEW200
     FM222100 32006KT P6SM FEW200=

USA.gov is the U.S. government's official web portal to all federal, state and local government web resources and services.